This is the latest recevied weather packets stored in our database for station/object KC9DRE. If no packets are shown the sender has not sent any weather packets the latest 10 day(s).
| Time | Temp. | Humidity | Pressure | Rain* | Wind** | Luminosity | Snow |
|---|---|---|---|---|---|---|---|
| 1777514471 | 11.67° C | 70% | 1014.6 hPa | 0 mm | - | 0 W/m² | - |
| 1777514168 | 11.67° C | 71% | 1014.6 hPa | 0 mm | - | 0 W/m² | - |
| 1777513864 | 11.67° C | 70% | 1014.7 hPa | 0 mm | - | 0 W/m² | - |
| 1777513562 | 11.67° C | 71% | 1014.7 hPa | 0 mm | - | 0 W/m² | - |
| 1777513258 | 11.67° C | 72% | 1014.6 hPa | 0 mm | - | 0 W/m² | - |
| 1777512954 | 11.67° C | 73% | 1014.3 hPa | 0 mm | - | 0 W/m² | - |
| 1777512651 | 11.67° C | 74% | 1014.3 hPa | 0 mm | - | 0 W/m² | - |
| 1777512045 | 11.67° C | 72% | 1014.1 hPa | 0 mm | - | 0 W/m² | - |
| 1777511743 | 11.67° C | 72% | 1014.2 hPa | 0 mm | - | 0 W/m² | - |
| 1777511440 | 12.22° C | 72% | 1014.2 hPa | 0 mm | - | 0 W/m² | - |
| 1777511137 | 12.22° C | 70% | 1014 hPa | 0 mm | - | 0 W/m² | - |
| 1777510832 | 12.78° C | 68% | 1013.8 hPa | 0 mm | - | 0 W/m² | - |
| 1777510226 | 13.33° C | 65% | 1013.9 hPa | 0 mm | - | 0 W/m² | - |
| 1777509618 | 13.89° C | 63% | 1013.7 hPa | 0 mm | - | 1 W/m² | - |
| 1777509315 | 14.44° C | 63% | 1013.7 hPa | 0 mm | - | 2 W/m² | - |
| 1777509012 | 14.44° C | 61% | 1013.4 hPa | 0 mm | - | 4 W/m² | - |
| 1777508709 | 14.44° C | 61% | 1013.5 hPa | 0 mm | - | 6 W/m² | - |
| 1777508406 | 15° C | 61% | 1013.3 hPa | 0 mm | - | 9 W/m² | - |
| 1777508103 | 15° C | 60% | 1013.4 hPa | 0 mm | - | 13 W/m² | - |
| 1777507800 | 15° C | 60% | 1013.3 hPa | 0 mm | - | 16 W/m² | - |
| 1777507496 | 15.56° C | 60% | 1013.4 hPa | 0 mm | - | 20 W/m² | - |
| 1777506891 | 16.11° C | 59% | 1013 hPa | 0 mm | - | 25 W/m² | - |
| 1777505676 | 16.67° C | 57% | 1012.9 hPa | 0 mm | - | 48 W/m² | - |
| 1777502643 | 17.78° C | 53% | 1013 hPa | 0 mm | - | 174 W/m² | - |
| 1777502339 | 18.33° C | 52% | 1013.1 hPa | 0 mm | - | 188 W/m² | - |
* Rain latest hour (hover to see other rain measurements)
** Current wind speed in m/s (hover to see current wind gust speed)